Goloson International Airport
MHLC : now visible

Airfield :











YOU CAN JOIN US ON...

 
LOGIN :

Register | Disclaimer

   EN    FR    IT 

 









Legend :    VFR   Marginal VFR   IFR   Intensive IFR   Very Intensive IFR
Visi :
Ceiling :
>= 8 km
>= 3000ft
5 to 8 km
1000 to 3000 ft
1500m to 5 km
500 to 1000 ft
800 to 1500m
200 to 500 ft
< 800m
< 200 ft
Symbols :   Thunderstorms  Fog  Heavy snow  Heavy precipitations  Wind > 20 kt






- Airport Elevation : 49 ft
- IATA code : LCE


MHLC - Goloson International

CURRENT METAR :
  • 232300Z 28004KT 2000 TSRA FEW007 BKN026CB OVC070 24/22 Q1008 A2977 NOSIG

EXPIRED METARs :
  • 232200Z 36003KT 4000 -TSRA FEW022TCU SCT027CB OVC070 28/25 Q1008 A2977 NOSIG
  • 232100Z 35007KT 9999 SCT024CB BKN070 29/25 Q1008 A2977 NOSIG

TAF TAF MHLC
Valid from the 24 at 00:00 until the 25 at 00:00 UTC


232255Z 2400/2424 00000KT 4000 TSRA SCT024CB BKN080 TX32/2319Z TN22/2412Z
BECMG 2402/2404 10008KT 9999 NSW SCT024 BKN080
BECMG 2406/2408 15004KT 8000 VCSH FEW020 BKN080



MET'MAP, your aeronautical weather chart ! - Copyright ORBIFLY December 2007 - Disclaimer

ORBIFLY MET'MAP TEAM :

Programming & Development : Alexandra Zaïnal
Concept & Development : Baudouin d'Aumeries
Co-Development & Prog : Marc-Olivier Méhu
Technical & hardware support : Manuel Goepfert

Contact : metmap@orbifly.com




SOURCES & CREDITS :

   NOAA       Earth
Advisory